HEBLHEOW

Guest
Details From HEBL - ABU SIMBEL
To HEOW - SHARK EL OWEINAT INTL
Flight Number -
Tags generated
Created
Modified
Stats Distance 161 nm / 299 km
Max Altitude 5,500 ft / 1,676 m
Waypoints 4
Social Downloads 0
Likes 0
Share VATSIM

Download

Looking for another format? Having issues loading an existing format? Contact us
Advertisement - Login to hide

Notes

Basic altitude profile: - Ascent Rate: 2500ft/min - Ascent Speed: 250kts - Cruise Altitude: 35000ft - Cruise Speed: 420kts - Descent Rate: 1500ft/min - Descent Speed: 250kts Options: - Use NATs: yes - Use PACOTS: yes - Use low airways: yes - Use high airways: yes

Route

HEBL SML06 W605 OWT HEOW

ID Type Via Altitude Latitude Longitude Leg Dist Tot Dist Heading (true) Name
O HEBL APT - 0 ft / 0 m 22.37595˚ 31.61172˚ - 0 nm - ABU SIMBEL
SML06 FIX - 1,900 ft / 579 m 22.36444˚ 31.51444˚ 5 nm 5 nm 263° / 263° -
OWT NDB W605 (AWY-LO) 5,500 ft / 1,676 m 22.58083˚ 28.73222˚ 154 nm 160 nm 275° / 274° SHARK EL OWEINAT NDB
O HEOW APT - 0 ft / 0 m 22.58567˚ 28.71664˚ 0 nm 161 nm 289° / 289° SHARK EL OWEINAT INTL

Altitude Profile

Advertisement - Login to hide

HEBL

Details ICAO HEBL (ABS)
Name ABU SIMBEL
Region Egypt
Timezone Africa/Cairo (UTC+2.0)
Stats Elevation 616 ft / 188 m (AMSL)
Location 22.375951° 31.611721°
Runways 1
Magnetic Variation 3.833° E

METAR

HEBL 130800Z 01007KT CAVOK 25/07 Q1018 NOSIG

Decode

TAF

TAF HEBL 130500Z 1306/1412 02012KT CAVOK

Decode

Departure Runways

ID Width Length Bearing (true) Bearing (mag) Surface Threshold Offset Overrun Length
15 148 ft / 45 m 9,873 ft / 3,009 m 150.09° 146.26° Asphalt 0 ft / 0 m 197 ft / 60 m
33 148 ft / 45 m 9,873 ft / 3,009 m 330.10° 326.27° Asphalt 0 ft / 0 m 197 ft / 60 m

HEOW

Details ICAO HEOW (GSQ)
Name SHARK EL OWEINAT INTL
Region Egypt
Timezone Africa/Cairo (UTC+2.0)
Stats Elevation 859 ft / 262 m (AMSL)
Location 22.585672° 28.716643°
Runways 1
Magnetic Variation 3.730° E

METAR

Not found

TAF

TAF HEOW 130500Z 1306/1412 34014KT 6000 NSC

Decode

Destination Runways

ID Width Length Bearing (true) Bearing (mag) Surface Threshold Offset Overrun Length
01 148 ft / 45 m 11,531 ft / 3,515 m 8.45° 4.72° Asphalt 0 ft / 0 m 197 ft / 60 m
19 148 ft / 45 m 11,531 ft / 3,515 m 188.45° 184.72° Asphalt 0 ft / 0 m 197 ft / 60 m